createdAt,value
2022-09-09T00:01:32.296Z,16.60
2022-09-09T00:05:38.874Z,16.70
2022-09-09T00:09:49.326Z,16.60
2022-09-09T00:13:55.780Z,16.50
2022-09-09T00:18:01.085Z,16.60
2022-09-09T00:22:18.133Z,16.60
2022-09-09T00:26:24.803Z,16.70
2022-09-09T00:30:27.966Z,16.60
2022-09-09T00:34:30.227Z,16.60
2022-09-09T00:38:37.098Z,16.60
2022-09-09T00:42:43.216Z,16.50
2022-09-09T00:47:19.410Z,16.60
2022-09-09T00:51:24.745Z,16.40
2022-09-09T00:55:42.631Z,16.50
2022-09-09T00:59:44.156Z,16.50
2022-09-09T01:03:46.520Z,16.40
2022-09-09T01:07:49.751Z,16.50
2022-09-09T01:11:51.339Z,16.50
2022-09-09T01:16:01.639Z,16.50
2022-09-09T01:20:06.165Z,16.50
2022-09-09T01:24:10.826Z,16.40
2022-09-09T01:28:15.584Z,16.50
2022-09-09T01:32:35.978Z,16.50
2022-09-09T01:36:45.470Z,16.40
2022-09-09T01:40:47.384Z,16.40
2022-09-09T01:44:48.909Z,16.50
2022-09-09T01:48:52.074Z,16.60
2022-09-09T01:52:57.539Z,16.50
2022-09-09T01:57:05.214Z,16.60
2022-09-09T02:01:16.634Z,16.50
2022-09-09T02:05:36.671Z,16.50
2022-09-09T02:09:40.030Z,16.50
2022-09-09T02:13:43.929Z,16.40
2022-09-09T02:17:47.422Z,16.60
2022-09-09T02:21:49.219Z,16.50
2022-09-09T02:25:52.777Z,16.60
2022-09-09T02:29:54.773Z,16.60
2022-09-09T02:33:58.176Z,16.60
2022-09-09T02:38:02.606Z,16.50
2022-09-09T02:42:05.208Z,16.70
2022-09-09T02:46:20.395Z,16.50
2022-09-09T02:50:22.344Z,16.60
2022-09-09T02:54:32.045Z,16.60
2022-09-09T02:58:33.873Z,16.60
2022-09-09T03:02:35.470Z,16.70
2022-09-09T03:06:37.069Z,16.80
2022-09-09T03:10:38.608Z,16.60
2022-09-09T03:14:40.230Z,16.70
2022-09-09T03:18:41.739Z,16.80
2022-09-09T03:22:44.795Z,16.60
2022-09-09T03:26:46.349Z,16.60
2022-09-09T03:30:47.850Z,16.60
2022-09-09T03:34:50.663Z,16.60
2022-09-09T03:38:52.183Z,16.50
2022-09-09T03:42:53.693Z,16.60
2022-09-09T03:46:55.236Z,16.60
2022-09-09T03:51:02.081Z,16.60
2022-09-09T03:55:03.966Z,16.60
2022-09-09T03:59:05.490Z,16.40
2022-09-09T04:03:07.050Z,16.40
2022-09-09T04:07:08.635Z,16.20
2022-09-09T04:11:10.693Z,16.10
2022-09-09T04:15:12.221Z,16.10
2022-09-09T04:19:14.726Z,16.10
2022-09-09T04:23:18.149Z,16.00
2022-09-09T04:27:19.945Z,16.00
2022-09-09T04:31:24.277Z,16.00
2022-09-09T04:35:26.358Z,15.90
2022-09-09T04:39:27.912Z,15.90
2022-09-09T04:43:31.622Z,15.90
2022-09-09T04:47:33.558Z,15.80
2022-09-09T04:51:35.171Z,15.80
2022-09-09T04:55:36.782Z,15.80
2022-09-09T04:59:41.080Z,15.90
2022-09-09T05:03:43.124Z,16.00
2022-09-09T05:07:44.695Z,16.00
2022-09-09T05:11:49.573Z,16.00
2022-09-09T05:15:54.895Z,16.00
2022-09-09T05:19:56.516Z,16.00
2022-09-09T05:23:58.779Z,16.00
2022-09-09T05:28:00.604Z,16.10
2022-09-09T05:32:02.521Z,16.10
2022-09-09T05:36:08.962Z,16.10
2022-09-09T05:40:11.836Z,16.10
2022-09-09T05:44:14.495Z,16.10
2022-09-09T05:48:17.082Z,16.10
2022-09-09T05:52:18.659Z,16.20
2022-09-09T05:56:22.966Z,16.10
2022-09-09T06:00:24.498Z,16.20
2022-09-09T06:04:26.063Z,16.20
2022-09-09T06:08:27.703Z,16.10
2022-09-09T06:12:29.361Z,16.20
2022-09-09T06:16:33.563Z,16.40
2022-09-09T06:20:35.660Z,16.60
2022-09-09T06:24:37.314Z,16.60
2022-09-09T06:28:39.109Z,16.60
2022-09-09T06:32:40.753Z,16.80
2022-09-09T06:36:42.491Z,17.00
2022-09-09T06:40:44.929Z,17.00
2022-09-09T06:44:46.491Z,17.20
2022-09-09T06:48:48.200Z,17.20
2022-09-09T06:52:49.897Z,17.20
2022-09-09T06:56:51.688Z,17.40
2022-09-09T07:00:53.902Z,17.40
2022-09-09T07:04:55.570Z,17.40
2022-09-09T07:08:58.797Z,17.40
2022-09-09T07:13:01.116Z,17.70
2022-09-09T07:17:02.729Z,17.70
2022-09-09T07:21:04.479Z,17.70
2022-09-09T07:25:06.564Z,17.80
2022-09-09T07:29:08.898Z,17.70
2022-09-09T07:33:10.844Z,17.60
2022-09-09T07:37:14.404Z,17.70
2022-09-09T07:41:18.135Z,17.60
2022-09-09T07:45:20.453Z,17.70
2022-09-09T07:49:28.475Z,17.80
2022-09-09T07:53:31.994Z,17.60
2022-09-09T07:57:33.754Z,17.70
2022-09-09T08:01:38.466Z,17.90
2022-09-09T08:05:40.610Z,18.00
2022-09-09T08:09:42.528Z,18.20
2022-09-09T08:13:45.088Z,18.40
2022-09-09T08:17:46.649Z,18.30
2022-09-09T08:21:49.935Z,18.50
2022-09-09T08:25:51.750Z,18.60
2022-09-09T08:29:54.081Z,18.50
2022-09-09T08:33:56.670Z,18.50
2022-09-09T08:37:58.492Z,18.70
2022-09-09T08:42:01.582Z,18.70
2022-09-09T08:46:04.996Z,18.40
2022-09-09T08:50:22.922Z,18.60
2022-09-09T08:54:48.375Z,18.50
2022-09-09T08:58:50.948Z,18.50
2022-09-09T09:02:55.489Z,18.90
2022-09-09T09:07:03.537Z,18.80
2022-09-09T09:11:07.034Z,19.20
2022-09-09T09:15:18.734Z,19.10
2022-09-09T09:19:23.756Z,19.30
2022-09-09T09:23:27.176Z,19.00
2022-09-09T09:27:36.384Z,18.90
2022-09-09T09:31:37.994Z,19.30
2022-09-09T09:35:42.980Z,19.30
2022-09-09T09:44:22.439Z,19.70
2022-09-09T09:48:25.676Z,19.60
2022-09-09T09:52:29.328Z,19.60
2022-09-09T09:56:31.044Z,19.40
2022-09-09T10:00:33.393Z,19.10
2022-09-09T10:04:34.987Z,18.80
2022-09-09T10:08:48.553Z,18.90
2022-09-09T10:13:10.456Z,18.90
2022-09-09T10:17:18.268Z,19.10
2022-09-09T10:21:33.338Z,19.20
2022-09-09T10:25:53.927Z,19.10
2022-09-09T10:29:56.275Z,19.50
2022-09-09T10:34:03.662Z,19.80
2022-09-09T10:38:15.674Z,19.70
2022-09-09T10:42:19.062Z,19.70
2022-09-09T10:46:20.807Z,20.00
2022-09-09T10:51:00.055Z,20.50
2022-09-09T10:55:03.683Z,20.60
2022-09-09T10:59:08.482Z,20.60
2022-09-09T11:03:14.655Z,20.60
2022-09-09T11:07:28.421Z,20.20
2022-09-09T11:11:41.248Z,20.00
2022-09-09T11:15:45.591Z,20.30
2022-09-09T11:19:47.371Z,20.30
2022-09-09T11:23:57.838Z,20.10
2022-09-09T11:28:25.926Z,20.00
2022-09-09T11:32:36.978Z,19.80
2022-09-09T11:36:57.535Z,20.00
2022-09-09T11:41:00.658Z,20.10
2022-09-09T11:45:31.596Z,21.20
2022-09-09T11:49:39.518Z,20.90
2022-09-09T11:53:54.105Z,21.30
2022-09-09T11:58:03.061Z,20.30
2022-09-09T12:02:13.719Z,20.80
2022-09-09T12:06:27.602Z,21.40
2022-09-09T12:10:36.979Z,21.50
2022-09-09T12:14:38.757Z,21.10
2022-09-09T12:18:40.975Z,20.60
2022-09-09T12:22:42.607Z,20.90
2022-09-09T12:26:47.124Z,20.50
2022-09-09T12:30:48.786Z,20.30
2022-09-09T12:35:09.511Z,20.50
2022-09-09T12:39:17.700Z,20.30
2022-09-09T12:43:21.185Z,19.60
2022-09-09T12:47:30.112Z,20.40
2022-09-09T12:51:33.374Z,20.10
2022-09-09T12:55:39.456Z,20.10
2022-09-09T12:59:43.088Z,20.70
2022-09-09T13:03:48.373Z,20.40
2022-09-09T13:07:50.416Z,20.60
2022-09-09T13:11:57.367Z,20.30
2022-09-09T13:16:00.044Z,20.20
2022-09-09T13:20:02.226Z,20.30
2022-09-09T13:24:05.412Z,20.10
2022-09-09T13:28:21.263Z,20.10
2022-09-09T13:32:23.757Z,20.10
2022-09-09T13:36:30.397Z,19.80
2022-09-09T13:40:31.995Z,20.50
2022-09-09T13:44:37.299Z,19.70
2022-09-09T13:48:38.794Z,19.70
2022-09-09T13:52:41.034Z,20.00
2022-09-09T13:56:43.221Z,20.30
2022-09-09T14:00:45.777Z,20.70
2022-09-09T14:04:47.799Z,20.80
2022-09-09T14:08:52.816Z,20.90
2022-09-09T14:12:54.536Z,20.60
2022-09-09T14:16:56.106Z,20.50
2022-09-09T14:20:59.613Z,20.20
2022-09-09T14:25:01.344Z,20.60
2022-09-09T14:29:03.781Z,20.70
2022-09-09T14:33:05.723Z,20.80
2022-09-09T14:37:07.317Z,20.90
2022-09-09T14:41:19.625Z,21.10
2022-09-09T14:45:22.281Z,20.90
2022-09-09T14:49:23.881Z,20.60
2022-09-09T14:53:25.433Z,20.50
2022-09-09T14:57:26.993Z,20.10
2022-09-09T15:01:29.028Z,19.60
2022-09-09T15:05:32.846Z,19.30
2022-09-09T15:09:35.465Z,19.20
2022-09-09T15:13:40.819Z,19.20
2022-09-09T15:17:42.345Z,19.20
2022-09-09T15:21:43.913Z,19.10
2022-09-09T15:25:52.996Z,19.20
2022-09-09T15:29:54.648Z,19.20
2022-09-09T15:34:01.577Z,19.50
2022-09-09T15:38:05.934Z,19.80
2022-09-09T15:42:08.608Z,20.10
2022-09-09T15:46:25.353Z,20.30
2022-09-09T15:50:28.238Z,20.20
2022-09-09T15:54:33.078Z,19.70
2022-09-09T15:58:35.277Z,19.60
2022-09-09T16:02:38.069Z,19.30
2022-09-09T16:06:40.231Z,19.20
2022-09-09T16:10:41.991Z,19.00
2022-09-09T16:14:43.888Z,18.50
2022-09-09T16:18:46.752Z,18.40
2022-09-09T16:22:48.454Z,18.40
2022-09-09T16:26:51.256Z,18.10
2022-09-09T16:30:52.873Z,17.80
2022-09-09T16:34:54.512Z,17.80
2022-09-09T16:38:58.254Z,17.60
2022-09-09T16:42:59.787Z,17.80
2022-09-09T16:47:01.389Z,17.80
2022-09-09T16:51:07.321Z,17.60
2022-09-09T16:55:10.198Z,17.60
2022-09-09T16:59:12.811Z,17.70
2022-09-09T17:03:14.657Z,17.70
2022-09-09T17:07:16.646Z,17.70
2022-09-09T17:11:19.723Z,17.60
2022-09-09T17:15:24.566Z,17.40
2022-09-09T17:19:27.196Z,17.40
2022-09-09T17:23:32.222Z,17.50
2022-09-09T17:27:34.653Z,17.40
2022-09-09T17:31:36.791Z,17.50
2022-09-09T17:35:38.644Z,17.30
2022-09-09T17:39:41.244Z,17.40
2022-09-09T17:43:43.550Z,17.30
2022-09-09T17:47:45.849Z,17.20
2022-09-09T17:51:50.470Z,17.20
2022-09-09T17:55:53.097Z,17.20
2022-09-09T17:59:55.040Z,17.20
2022-09-09T18:03:57.701Z,17.10
2022-09-09T18:07:59.432Z,17.10
2022-09-09T18:12:01.957Z,17.00
2022-09-09T18:16:08.851Z,17.10
2022-09-09T18:20:11.470Z,17.00
2022-09-09T18:24:15.039Z,17.00
2022-09-09T18:28:17.087Z,17.10
2022-09-09T18:32:20.124Z,17.00
2022-09-09T18:36:43.325Z,17.10
2022-09-09T18:40:44.951Z,17.00
2022-09-09T18:44:46.489Z,17.10
2022-09-09T18:48:50.411Z,17.10
2022-09-09T18:52:52.750Z,17.10
2022-09-09T18:56:55.263Z,17.10
2022-09-09T19:00:57.040Z,17.00
2022-09-09T19:04:58.664Z,17.10
2022-09-09T19:09:04.142Z,16.90
2022-09-09T19:13:07.785Z,16.90
2022-09-09T19:17:09.356Z,16.80
2022-09-09T19:21:24.538Z,16.80
2022-09-09T19:25:26.177Z,16.80
2022-09-09T19:29:28.856Z,16.70
2022-09-09T19:33:31.446Z,16.80
2022-09-09T19:37:33.110Z,16.70
2022-09-09T19:41:34.784Z,16.60
2022-09-09T19:45:36.346Z,16.60
2022-09-09T19:49:38.514Z,16.70
2022-09-09T19:53:41.387Z,16.70
2022-09-09T19:57:42.922Z,16.60
2022-09-09T20:01:45.316Z,16.60
2022-09-09T20:05:49.234Z,16.60
2022-09-09T20:09:52.836Z,16.70
2022-09-09T20:13:55.134Z,16.60
2022-09-09T20:17:56.815Z,16.60
2022-09-09T20:21:58.891Z,16.60
2022-09-09T20:26:02.828Z,16.60
2022-09-09T20:30:04.980Z,16.50
2022-09-09T20:34:07.662Z,16.50
2022-09-09T20:38:09.263Z,16.50
2022-09-09T20:42:11.200Z,16.40
2022-09-09T20:46:12.802Z,16.50
2022-09-09T20:50:15.438Z,16.40
2022-09-09T20:54:23.138Z,16.40
2022-09-09T20:58:24.719Z,16.40
2022-09-09T21:02:26.274Z,16.40
2022-09-09T21:06:27.937Z,16.40
2022-09-09T21:10:29.468Z,16.40
2022-09-09T21:14:32.473Z,16.40
2022-09-09T21:18:36.163Z,16.40
2022-09-09T21:22:37.740Z,16.30
2022-09-09T21:31:37.769Z,16.30
2022-09-09T21:35:40.426Z,16.20
2022-09-09T21:39:42.844Z,16.10
2022-09-09T21:43:45.514Z,16.10
2022-09-09T21:47:47.296Z,16.10
2022-09-09T21:51:48.865Z,16.00
2022-09-09T21:55:51.822Z,16.00
2022-09-09T21:59:53.417Z,16.00
2022-09-09T22:03:54.950Z,16.10
2022-09-09T22:07:57.046Z,16.00
2022-09-09T22:11:58.704Z,16.00
2022-09-09T22:16:03.435Z,16.00
2022-09-09T22:20:05.550Z,16.00
2022-09-09T22:24:07.168Z,16.00
2022-09-09T22:28:09.363Z,16.00
2022-09-09T22:32:11.096Z,16.00
2022-09-09T22:36:12.721Z,16.00
2022-09-09T22:40:14.406Z,15.90
2022-09-09T22:44:16.422Z,15.90
2022-09-09T22:48:18.168Z,15.90
2022-09-09T22:52:19.719Z,15.70
2022-09-09T22:56:21.300Z,15.80
2022-09-09T23:00:23.730Z,15.70
2022-09-09T23:04:26.193Z,15.70
2022-09-09T23:08:33.409Z,15.70
2022-09-09T23:12:35.024Z,15.60
2022-09-09T23:16:39.692Z,15.70
2022-09-09T23:20:41.585Z,15.70
2022-09-09T23:24:43.208Z,15.70
2022-09-09T23:28:44.805Z,15.70
2022-09-09T23:32:48.473Z,15.70
2022-09-09T23:36:50.222Z,15.70
2022-09-09T23:40:51.784Z,15.70
2022-09-09T23:44:53.879Z,15.60
2022-09-09T23:48:57.421Z,15.60
2022-09-09T23:52:59.002Z,15.60
2022-09-09T23:57:00.597Z,15.70
